Flight Track Log - Related Links

Times and Time Zones

All times are in EDT time to prevent confusion due to time zone crossing. See the BJS542 flight status page for this flight to view local times or setup timezone preferences in your user account.

Time Position Orientation Groundspeed Altitude Reporting Facility
EDT Latitude Longitude Course Direction KTS MPH feet Rate Location/Type
Tue 11:45:14 AM 42.1500 -87.9167 299° West 178 205 2,800  Level Chicago TRACON
Tue 11:45:32 AM 42.1564 -87.9322 299° West 248 285 3,000 1,875 Climbing Chicago Center
Tue 11:46:34 AM 42.2042 -87.9244 North 201 231 5,300 2,613 Climbing Chicago Center
Tue 11:47:36 AM 42.1328 -87.8808 156° South 267 307 8,400 3,919 Climbing Chicago Center
Tue 11:48:38 AM 42.0522 -87.8772 178° South 289 333 13,400 3,774 Climbing Chicago Center
Tue 11:49:40 AM 41.9639 -87.8719 177° South 314 361 16,200 3,194 Climbing Chicago Center
Tue 11:50:42 AM 41.8644 -87.8475 170° South 359 413 20,000 3,339 Climbing Chicago Center
Tue 11:51:44 AM 41.7625 -87.8250 171° South 369 425 23,100 2,244 Climbing Chicago Center
Tue 11:52:45 AM 41.6556 -87.7822 163° South 399 459 24,600 1,512 Climbing Chicago Center
Tue 11:53:47 AM 41.5564 -87.6914 146° Southeast 426 490 26,200 1,500 Climbing Chicago Center
Tue 11:55:29 AM 41.3828 -87.5361 146° Southeast 436 502 28,700 1,935 Climbing Indianapolis Center
Tue 11:55:51 AM 41.3244 -87.5142 164° South 440 506 30,200 2,643 Climbing Chicago Center
Tue 11:56:53 AM 41.2097 -87.4606 161° South 437 503 32,400 1,355 Climbing Chicago Center
Tue 11:57:55 AM 41.0922 -87.4072 161° South 441 507 33,000 290 Climbing Chicago Center
Tue 11:58:57 AM 40.9722 -87.3514 161° South 454 522 33,000 48 Level Chicago Center
Tue 11:59:59 AM 40.8522 -87.2958 161° South 458 527 33,100 1,645 Climbing Chicago Center
Tue 12:01:01 PM 40.7128 -87.2336 161° South 442 509 36,400 2,613 Climbing Chicago Center
Tue 12:02:03 PM 40.6031 -87.1831 161° South 422 486 38,500 1,839 Climbing Chicago Center
Tue 12:03:05 PM 40.4936 -87.1322 161° South 418 481 40,200 1,171 Climbing Chicago Center
Tue 12:04:06 PM 40.3828 -87.0822 161° South 421 484 40,900 780 Climbing Chicago Center
Tue 12:05:08 PM 40.2658 -87.0297 161° South 440 506 41,800 1,016 Climbing Chicago Center
Tue 12:06:10 PM 40.1503 -86.9772 161° South 440 506 43,000 1,200 Climbing Chicago Center
Tue 12:06:48 PM 40.0608 -86.9364 161° South 439 505 43,800 848 Climbing Indianapolis Center
Tue 12:07:49 PM 39.9453 -86.8858 161° South 437 503 44,400 585 Climbing Indianapolis Center
Tue 12:08:51 PM 39.8292 -86.8347 161° South 438 504 45,000 290 Climbing Indianapolis Center
Tue 12:09:53 PM 39.7100 -86.7811 161° South 446 513 45,000  Level Indianapolis Center
Tue 12:10:54 PM 39.5867 -86.7264 161° South 461 531 45,000  Level Indianapolis Center
Tue 12:11:56 PM 39.4622 -86.6728 162° South 467 537 45,000  Level Indianapolis Center
Tue 12:12:57 PM 39.3378 -86.6172 161° South 471 542 45,000  Level Indianapolis Center
Tue 12:13:59 PM 39.2147 -86.5644 162° South 465 535 45,000  Level Indianapolis Center
Tue 12:15:01 PM 39.0922 -86.5103 161° South 463 533 45,000  Level Indianapolis Center
Tue 12:16:03 PM 38.9700 -86.4578 162° South 459 528 45,000  Level Indianapolis Center
Tue 12:17:04 PM 38.8217 -86.3925 161° South 464 534 45,000  Level Indianapolis Center
Tue 12:18:06 PM 38.6978 -86.3394 162° South 466 536 45,000  Level Indianapolis Center
Tue 12:19:08 PM 38.5725 -86.2864 162° South 469 540 45,000  Level Indianapolis Center
Tue 12:20:09 PM 38.4483 -86.2331 161° South 467 537 45,000  Level Indianapolis Center
Tue 12:21:11 PM 38.3233 -86.1797 161° South 468 539 45,000  Level Indianapolis Center
Tue 12:22:13 PM 38.1978 -86.1275 162° South 470 541 45,000  Level Indianapolis Center
Tue 12:23:14 PM 38.0722 -86.0747 162° South 470 541 45,000  Level Indianapolis Center
Tue 12:24:16 PM 37.9464 -86.0222 162° South 471 542 45,000  Level Indianapolis Center
Tue 12:25:18 PM 37.8214 -85.9692 161° South 472 543 45,000  Level Indianapolis Center
Tue 12:26:19 PM 37.6953 -85.9186 162° South 473 544 45,000  Level Indianapolis Center
Tue 12:27:21 PM 37.5708 -85.8647 161° South 473 544 45,000  Level Indianapolis Center
Tue 12:27:46 PM 37.4956 -85.8339 162° South 474 545 45,000  Level Indianapolis Center
Tue 12:28:47 PM 37.3711 -85.7817 162° South 470 541 45,000  Level Indianapolis Center
Tue 12:29:49 PM 37.2439 -85.7283 162° South 467 537 45,000  Level Indianapolis Center
Tue 12:30:51 PM 37.1150 -85.6761 162° South 478 550 45,000  Level Indianapolis Center
Tue 12:31:53 PM 36.9897 -85.6239 162° South 474 545 45,000  Level Indianapolis Center
Tue 12:32:54 PM 36.8617 -85.5725 162° South 479 551 45,000  Level Indianapolis Center
Tue 12:33:56 PM 36.7342 -85.5214 162° South 469 540 45,000  Level Indianapolis Center
Tue 12:34:58 PM 36.6097 -85.4708 162° South 469 540 45,000  Level Indianapolis Center
Tue 12:36:00 PM 36.4844 -85.4197 162° South 474 545 45,000  Level Indianapolis Center
Tue 12:37:01 PM 36.3608 -85.3700 162° South 469 540 45,000  Level Indianapolis Center
Tue 12:37:45 PM 36.2622 -85.3339 164° South 474 545 45,000  Level Atlanta Center
Tue 12:38:45 PM 36.1397 -85.2856 162° South 474 545 45,000  Level Atlanta Center
Tue 12:39:45 PM 36.0150 -85.2350 162° South 479 551 45,000  Level Atlanta Center
Tue 12:40:45 PM 35.8903 -85.1897 164° South 479 551 45,000  Level Atlanta Center
Tue 12:41:45 PM 35.7633 -85.1392 162° South 479 551 45,000  Level Atlanta Center
Tue 12:42:45 PM 35.6386 -85.0864 161° South 479 551 45,000  Level Atlanta Center
Tue 12:43:45 PM 35.5161 -85.0364 162° South 479 551 45,000  Level Atlanta Center
Tue 12:44:45 PM 35.3892 -84.9864 162° South 479 551 45,000  Level Atlanta Center
Tue 12:45:45 PM 35.2622 -84.9392 163° South 479 551 45,000  Level Atlanta Center
Tue 12:46:45 PM 35.1333 -84.8869 162° South 479 551 45,000  Level Atlanta Center
Tue 12:47:45 PM 35.0064 -84.8400 163° South 479 551 45,000  Level Atlanta Center
Tue 12:48:45 PM 34.8772 -84.7908 163° South 479 551 45,000  Level Atlanta Center
Tue 12:49:45 PM 34.7522 -84.7417 162° South 479 551 45,000  Level Atlanta Center
Tue 12:50:46 PM 34.6150 -84.6850 161° South 472 543 45,000  Level Atlanta Center
Tue 12:51:45 PM 34.4900 -84.6386 163° South 472 543 45,000  Level Atlanta Center
Tue 12:52:45 PM 34.3669 -84.5925 163° South 477 549 45,000  Level Atlanta Center
Tue 12:53:45 PM 34.2400 -84.5414 162° South 477 549 45,000  Level Atlanta Center
Tue 12:54:45 PM 34.1106 -84.4978 164° South 482 555 45,000  Level Atlanta Center
Tue 12:55:45 PM 33.9836 -84.4497 163° South 482 555 45,000  Level Atlanta Center
Tue 12:56:45 PM 33.8606 -84.4042 163° South 477 549 45,000  Level Atlanta Center
Tue 12:57:45 PM 33.7375 -84.3561 162° South 472 543 45,000  Level Atlanta Center
Tue 12:58:45 PM 33.6103 -84.3083 163° South 472 543 45,000  Level Atlanta Center
Tue 12:59:45 PM 33.4850 -84.2606 162° South 477 549 45,000  Level Atlanta Center
Tue 01:00:45 PM 33.3600 -84.2128 162° South 477 549 45,000  Level Atlanta Center
Tue 01:01:45 PM 33.2369 -84.1681 163° South 477 549 45,000  Level Atlanta Center
Tue 01:02:45 PM 33.1117 -84.1231 163° South 477 549 45,000  Level Atlanta Center
Tue 01:03:46 PM 33.0053 -84.0808 162° South 471 542 45,000  Level Atlanta Center
Tue 01:04:45 PM 32.8800 -84.0364 163° South 471 542 45,000  Level Atlanta Center
Tue 01:05:45 PM 32.7547 -83.9894 163° South 471 542 45,000  Level Atlanta Center
Tue 01:06:45 PM 32.6294 -83.9450 163° South 471 542 45,000  Level Atlanta Center
Tue 01:07:45 PM 32.5083 -83.8983 162° South 471 542 45,000  Level Atlanta Center
Tue 01:08:45 PM 32.3831 -83.8544 164° South 471 542 45,000  Level Atlanta Center
Tue 01:11:14 PM 32.0614 -83.7358 163° South 463 533 45,000  Level Jacksonville Center
Tue 01:12:14 PM 31.9364 -83.6883 162° South 463 533 45,000 -50 Level Jacksonville Center
Tue 01:13:14 PM 31.8136 -83.6431 163° South 463 533 44,900  Descending Jacksonville Center
Tue 01:14:14 PM 31.6864 -83.6031 165° South 463 533 45,000 50 Climbing Jacksonville Center
Tue 01:15:14 PM 31.5656 -83.5583 162° South 491 565 45,000  Level Jacksonville Center
Tue 01:16:14 PM 31.4447 -83.5136 162° South 486 559 45,000 -100 Level Jacksonville Center
Tue 01:17:14 PM 31.3197 -83.4714 164° South 475 547 44,800 -650 Descending Jacksonville Center
Tue 01:18:14 PM 31.1986 -83.4269 163° South 469 540 43,700 -1,400 Descending Jacksonville Center
Tue 01:19:14 PM 31.0800 -83.3850 163° South 456 525 42,000 -1,750 Descending Jacksonville Center
Tue 01:20:14 PM 30.9569 -83.3408 163° South 456 525 40,200 -1,850 Descending Jacksonville Center
Tue 01:21:14 PM 30.8358 -83.2989 163° South 456 525 38,300 -1,900 Descending Jacksonville Center
Tue 01:22:14 PM 30.7172 -83.2211 151° Southeast 451 519 36,400 -1,850 Descending Jacksonville Center
Tue 01:23:14 PM 30.6067 -83.1267 144° Southeast 459 528 34,600 -1,700 Descending Jacksonville Center
Tue 01:24:14 PM 30.5003 -83.0300 142° Southeast 481 554 33,000 -800 Descending Jacksonville Center
Tue 01:25:14 PM 30.3917 -82.9336 143° Southeast 492 566 33,000  Level Jacksonville Center
Tue 01:26:14 PM 30.2833 -82.8372 142° Southeast 492 566 33,000  Level Jacksonville Center
Tue 01:27:14 PM 30.1744 -82.7411 143° Southeast 492 566 33,000  Level Jacksonville Center
Tue 01:28:14 PM 30.0658 -82.6478 143° Southeast 492 566 33,000  Level Jacksonville Center
Tue 01:29:14 PM 29.9592 -82.5522 142° Southeast 492 566 33,000 -300 Level Jacksonville Center
Tue 01:30:14 PM 29.8525 -82.4567 142° Southeast 492 566 32,400 -1,200 Descending Jacksonville Center
Tue 01:31:14 PM 29.7436 -82.3664 144° Southeast 487 560 30,600 -1,800 Descending Jacksonville Center
Tue 01:32:14 PM 29.6344 -82.2714 143° Southeast 487 560 28,800 -1,650 Descending Jacksonville Center
Tue 01:33:14 PM 29.5358 -82.1861 143° Southeast 487 560 27,300 -900 Descending Jacksonville Center
Tue 01:34:14 PM 29.4311 -82.0961 143° Southeast 482 555 27,000 -200 Descending Jacksonville Center
Tue 01:35:14 PM 29.3303 -82.0136 144° Southeast 482 555 26,900 -850 Descending Jacksonville Center
Tue 01:36:14 PM 29.2231 -81.9217 143° Southeast 482 555 25,300 -2,050 Descending Jacksonville Center
Tue 01:37:14 PM 29.1222 -81.8300 142° Southeast 477 549 22,800 -1,650 Descending Jacksonville Center
Tue 01:38:14 PM 29.0256 -81.7503 144° Southeast 454 522 22,000 -400 Descending Jacksonville Center
Tue 01:39:14 PM 28.9350 -81.6683 142° Southeast 434 499 22,000  Level Jacksonville Center
Tue 01:40:14 PM 28.8403 -81.5889 144° Southeast 428 493 22,000  Level Jacksonville Center
Tue 01:41:58 PM 28.6656 -81.4433 144° Southeast 435 501 22,000  Level Miami Center
Tue 01:42:58 PM 28.5764 -81.3642 142° Southeast 430 495 22,000  Level Miami Center
Tue 01:43:58 PM 28.4872 -81.2778 140° Southeast 420 483 22,000  Level Miami Center
Tue 01:44:58 PM 28.3983 -81.1825 137° Southeast 420 483 22,000 -500 Level Miami Center
Tue 01:46:00 PM 28.3073 -81.0907 139° Southeast  Level FlightAware Approximate
Tue 01:46:58 PM 28.2261 -81.0061 139° Southeast 426 490 20,500  Level Miami Center
Tue 01:47:58 PM 28.1411 -80.9158 137° Southeast 426 490 18,500 -1,950 Descending Miami Center
Tue 01:48:58 PM 28.0536 -80.8306 139° Southeast 420 483 16,600 -2,750 Descending Miami Center
Tue 01:49:58 PM 27.9725 -80.7478 138° Southeast 415 478 13,000 -3,050 Descending Miami Center
Tue 01:50:58 PM 27.8975 -80.6700 137° Southeast 386 444 10,500 -2,300 Descending Miami Center
Tue 01:51:58 PM 27.8344 -80.6044 137° Southeast 334 384 8,400 -2,100 Descending Miami Center
Tue 01:52:58 PM 27.7817 -80.5464 136° Southeast 300 345 6,300 -2,000 Descending Miami Center
Tue 01:53:58 PM 27.7503 -80.4656 114° Southeast 284 327 4,400 -1,150 Descending Miami Center
Tue 01:54:58 PM 27.7250 -80.3850 110° East 259 298 4,000 -750 Descending Miami Center
Tue 01:55:58 PM 27.6947 -80.3489 133° Southeast 164 189 2,900 -1,200 Descending Miami Center
Tue 01:56:58 PM 27.6592 -80.3525 185° South 133 153 1,600 -1,150 Descending Miami Center
Tue 01:57:58 PM 27.6458 -80.3825 243° Southwest 119 137 600 -1,000 Descending Miami Center

Login

Don't have an account? Register now (free) for customized features, flight alerts, and more!